Time;durP1;ratioP1;P1;durP2;ratioP2;P2;SDS_P1;SDS_P2;PMS_P1;PMS_P2;Temp;Humidity;BMP_temperature;BMP_pressure;BME280_temperature;BME280_humidity;BME280_pressure;Samples;Min_cycle;Max_cycle;Signal;HPM_P1;HPM_P2
2023/06/19 00:01:09;;;;;;;28.00;24.40;;;;;;;16.04;79.25;98505.25;105012;1271;96719;-63
2023/06/19 00:03:36;;;;;;;25.00;19.90;;;;;;;16.01;79.37;98503.58;104794;1260;97447;-63
2023/06/19 00:06:03;;;;;;;17.20;12.90;;;;;;;15.95;79.28;98498.52;105005;1270;96595;-62
2023/06/19 00:08:30;;;;;;;19.00;13.90;;;;;;;15.80;79.68;98499.14;105029;1267;96668;-62
2023/06/19 00:10:58;;;;;;;19.60;13.90;;;;;;;15.66;80.20;98495.14;104995;1278;96572;-62
2023/06/19 00:13:25;;;;;;;19.00;12.10;;;;;;;15.57;80.35;98494.66;105075;1271;96665;-62
2023/06/19 00:15:52;;;;;;;17.30;12.40;;;;;;;15.57;80.39;98494.02;105133;1259;96623;-62
2023/06/19 00:18:19;;;;;;;17.20;12.40;;;;;;;15.60;80.61;98494.95;105045;1259;97481;-62
2023/06/19 00:20:46;;;;;;;20.00;12.90;;;;;;;15.62;80.63;98495.57;104912;1270;108321;-62
2023/06/19 00:23:16;;;;;;;17.70;13.50;;;;;;;15.62;81.00;98493.13;104978;1268;97506;-62
2023/06/19 00:25:44;;;;;;;17.10;11.70;;;;;;;15.62;80.86;98496.49;104937;1259;97371;-62
2023/06/19 00:28:13;;;;;;;17.10;11.60;;;;;;;15.55;80.65;98496.65;104904;1260;110292;-62
2023/06/19 00:30:41;;;;;;;15.70;10.70;;;;;;;15.40;80.97;98498.43;105057;1258;99191;-63
2023/06/19 00:33:09;;;;;;;15.00;10.20;;;;;;;15.37;81.10;98498.48;106017;1268;108754;-62
2023/06/19 00:35:36;;;;;;;10.90;7.60;;;;;;;15.40;81.21;98494.73;104966;1258;96553;-62
2023/06/19 00:38:05;;;;;;;10.70;7.20;;;;;;;15.49;81.33;98496.23;104989;1261;96564;-62
2023/06/19 00:40:34;;;;;;;9.90;7.20;;;;;;;15.59;80.93;98495.55;104971;1261;109356;-62
2023/06/19 00:43:01;;;;;;;12.80;8.10;;;;;;;15.64;80.39;98495.08;104869;1270;99089;-61
2023/06/19 00:45:29;;;;;;;13.90;7.60;;;;;;;15.66;80.12;98496.31;104980;1260;108551;-61
2023/06/19 00:47:58;;;;;;;11.60;7.20;;;;;;;15.69;79.74;98498.20;105045;1258;96657;-62
2023/06/19 00:50:29;;;;;;;11.30;7.50;;;;;;;15.73;79.28;98499.27;104913;1263;97996;-61
2023/06/19 00:52:58;;;;;;;11.80;7.50;;;;;;;15.77;79.02;98496.61;104967;1262;109919;-61
2023/06/19 00:55:32;;;;;;;11.90;8.30;;;;;;;15.74;79.22;98496.03;105003;1261;98232;-61
2023/06/19 00:58:01;;;;;;;13.40;9.90;;;;;;;15.61;80.04;98499.73;104988;1271;107062;-61
2023/06/19 01:00:28;;;;;;;12.60;10.30;;;;;;;15.39;81.15;98496.92;104997;1263;97544;-61
2023/06/19 01:02:55;;;;;;;14.00;10.20;;;;;;;15.20;81.70;98499.75;104958;1258;97748;-61
2023/06/19 01:05:23;;;;;;;14.30;9.80;;;;;;;15.13;81.50;98496.45;104790;1262;109621;-61
2023/06/19 01:08:03;;;;;;;14.00;9.50;;;;;;;15.12;81.41;98496.98;105032;1258;99137;-61
2023/06/19 01:10:38;;;;;;;9.70;7.60;;;;;;;15.16;81.26;98495.38;104986;1272;108643;-61
2023/06/19 01:13:15;;;;;;;9.50;7.70;;;;;;;15.22;80.84;98493.09;104979;1258;96663;-61
2023/06/19 01:15:43;;;;;;;9.70;7.60;;;;;;;15.29;80.33;98495.45;104593;1262;97866;-61
2023/06/19 01:18:12;;;;;;;16.20;7.80;;;;;;;15.34;79.95;98490.77;104723;1259;110396;-61
2023/06/19 01:20:40;;;;;;;9.40;7.30;;;;;;;15.37;79.95;98489.42;104980;1261;98017;-61
2023/06/19 01:23:10;;;;;;;14.20;7.50;;;;;;;15.39;79.62;98488.47;104674;1260;107643;-61
2023/06/19 01:25:37;;;;;;;12.10;7.20;;;;;;;15.40;79.54;98487.94;104886;1259;96597;-62
2023/06/19 01:28:09;;;;;;;12.00;7.80;;;;;;;15.40;79.38;98485.42;104993;1259;96945;-63
2023/06/19 01:30:40;;;;;;;12.50;7.70;;;;;;;15.35;79.45;98483.94;105047;1266;111102;-63
2023/06/19 01:33:28;;;;;;;11.00;8.30;;;;;;;15.26;79.57;98486.35;105052;1259;99399;-63
2023/06/19 01:35:57;;;;;;;13.10;7.20;;;;;;;15.21;79.60;98486.75;105012;1268;108125;-63
2023/06/19 01:38:28;;;;;;;14.30;8.10;;;;;;;15.15;79.57;98489.12;105042;1259;96725;-63
2023/06/19 01:40:56;;;;;;;;;;;;;;;15.09;79.75;98491.70;105043;1262;96555;-60
2023/06/19 01:43:26;;;;;;;13.40;9.60;;;;;;;14.95;80.36;98490.90;105068;1265;110865;-62
2023/06/19 01:45:53;;;;;;;12.70;9.00;;;;;;;14.85;80.51;98493.52;105055;1261;98284;-61
2023/06/19 01:48:21;;;;;;;13.20;8.90;;;;;;;14.80;80.61;98493.67;105020;1260;108468;-61
2023/06/19 01:50:50;;;;;;;12.60;8.90;;;;;;;14.74;80.71;98492.27;104997;1259;96575;-61
2023/06/19 01:53:17;;;;;;;16.50;9.40;;;;;;;14.71;80.90;98494.61;105021;1266;97352;-61
2023/06/19 01:55:45;;;;;;;11.70;9.00;;;;;;;14.65;81.04;98498.63;104987;1260;109688;-61
2023/06/19 01:58:13;;;;;;;12.20;9.30;;;;;;;14.61;81.22;98498.73;105017;1254;99275;-63
2023/06/19 02:00:40;;;;;;;13.10;9.30;;;;;;;14.56;81.23;98494.95;104910;1270;107582;-61
2023/06/19 02:03:08;;;;;;;15.90;10.10;;;;;;;14.60;81.34;98496.24;104942;1260;97857;-61
2023/06/19 02:05:39;;;;;;;11.70;8.80;;;;;;;14.68;81.16;98495.63;105039;1258;97664;-61
2023/06/19 02:08:07;;;;;;;14.20;9.30;;;;;;;14.75;80.88;98500.04;104689;1265;109378;-61
2023/06/19 02:10:34;;;;;;;14.80;9.00;;;;;;;14.78;80.89;98502.04;104833;1261;98450;-61
2023/06/19 02:13:01;;;;;;;13.00;9.10;;;;;;;14.78;80.61;98504.30;104790;1267;98496;-61
2023/06/19 02:15:28;;;;;;;13.40;8.80;;;;;;;14.67;80.61;98503.96;104818;1259;98092;-61
2023/06/19 02:17:56;;;;;;;15.00;9.60;;;;;;;14.57;80.99;98504.19;104969;1259;96623;-61
2023/06/19 02:20:24;;;;;;;11.90;9.10;;;;;;;14.56;81.00;98504.23;105017;1269;111600;-61
2023/06/19 02:22:53;;;;;;;14.50;9.90;;;;;;;14.54;81.08;98502.38;104903;1259;99203;-61
2023/06/19 02:25:20;;;;;;;13.20;9.60;;;;;;;14.52;81.13;98502.07;104943;1269;105897;-62
2023/06/19 02:27:47;;;;;;;14.10;8.50;;;;;;;14.52;81.07;98498.52;104808;1263;96866;-62
2023/06/19 02:30:15;;;;;;;15.00;8.50;;;;;;;14.53;81.01;98496.52;104947;1259;97882;-62
2023/06/19 02:32:43;;;;;;;12.50;9.20;;;;;;;14.49;81.18;98496.59;104983;1260;96575;-62
2023/06/19 02:35:11;;;;;;;12.70;8.90;;;;;;;14.36;81.80;98492.25;105020;1266;97642;-62
2023/06/19 02:37:39;;;;;;;11.90;8.50;;;;;;;14.24;82.43;98492.71;104797;1269;108659;-62
2023/06/19 02:40:09;;;;;;;14.50;9.50;;;;;;;14.12;83.03;98492.49;104709;1270;97747;-62
2023/06/19 02:42:36;;;;;;;14.90;10.80;;;;;;;14.03;83.01;98494.25;104774;1260;96609;-62
2023/06/19 02:45:04;;;;;;;14.80;11.20;;;;;;;14.02;83.04;98496.24;104907;1259;96565;-62
2023/06/19 02:47:33;;;;;;;16.70;10.60;;;;;;;14.06;83.13;98496.23;104937;1270;97948;-64
2023/06/19 02:50:03;;;;;;;14.10;11.40;;;;;;;14.10;83.25;98495.67;104878;1261;108666;-64
2023/06/19 02:52:31;;;;;;;15.00;11.30;;;;;;;14.15;83.21;98501.64;105053;1259;96570;-62
2023/06/19 02:54:58;;;;;;;16.00;10.30;;;;;;;14.19;83.00;98503.66;105028;1259;96561;-62
2023/06/19 02:57:26;;;;;;;14.90;9.90;;;;;;;14.23;82.93;98507.03;105014;1256;110822;-62
2023/06/19 02:59:54;;;;;;;14.90;9.80;;;;;;;14.21;83.13;98507.44;105052;1263;97593;-62
2023/06/19 03:02:22;;;;;;;13.40;10.40;;;;;;;14.11;83.44;98506.02;104929;1261;108252;-62
2023/06/19 03:04:52;;;;;;;15.80;11.40;;;;;;;14.06;83.86;98507.80;105001;1265;97110;-62
2023/06/19 03:07:20;;;;;;;15.90;10.50;;;;;;;14.07;84.05;98506.66;105017;1270;97831;-62
2023/06/19 03:09:47;;;;;;;13.90;10.40;;;;;;;14.08;84.29;98507.48;105000;1268;97457;-62
2023/06/19 03:12:14;;;;;;;13.60;10.70;;;;;;;14.10;84.39;98508.58;104600;1259;496924;-62
2023/06/19 03:14:42;;;;;;;17.40;11.00;;;;;;;14.10;84.57;98513.84;104960;1259;108095;-62
2023/06/19 03:17:10;;;;;;;15.20;10.80;;;;;;;14.09;84.81;98512.38;104990;1270;96687;-62
2023/06/19 03:19:37;;;;;;;16.00;11.40;;;;;;;14.08;84.72;98511.48;104845;1261;98329;-62
2023/06/19 03:22:05;;;;;;;19.40;12.20;;;;;;;14.08;85.01;98513.52;104995;1258;96650;-62
2023/06/19 03:24:32;;;;;;;17.10;12.30;;;;;;;14.08;84.84;98510.08;104932;1262;98290;-62
2023/06/19 03:27:00;;;;;;;18.80;12.70;;;;;;;14.15;84.79;98517.65;104974;1266;108247;-62
2023/06/19 03:29:27;;;;;;;19.20;11.40;;;;;;;14.25;84.66;98514.49;104974;1271;97129;-62
2023/06/19 03:31:54;;;;;;;20.50;11.10;;;;;;;14.33;84.59;98512.30;104983;1258;97473;-62
2023/06/19 03:34:22;;;;;;;17.60;10.30;;;;;;;14.38;84.71;98511.86;105003;1263;97149;-62
2023/06/19 03:36:49;;;;;;;17.80;10.30;;;;;;;14.43;84.70;98518.70;104971;1259;96630;-62
2023/06/19 03:39:18;;;;;;;17.50;11.00;;;;;;;14.50;84.66;98516.42;104980;1259;96633;-62
2023/06/19 03:41:45;;;;;;;14.40;9.40;;;;;;;14.57;84.47;98519.63;105008;1256;96639;-62
2023/06/19 03:44:13;;;;;;;15.80;9.90;;;;;;;14.58;84.68;98521.09;104993;1268;96546;-62
2023/06/19 03:46:40;;;;;;;16.80;11.30;;;;;;;14.60;84.65;98517.74;105031;1260;110396;-62
2023/06/19 03:49:09;;;;;;;15.80;10.50;;;;;;;14.65;84.46;98521.87;104970;1262;98189;-62
2023/06/19 03:51:37;;;;;;;17.00;10.10;;;;;;;14.66;84.49;98520.26;104825;1259;108586;-62
2023/06/19 03:54:04;;;;;;;19.30;11.10;;;;;;;14.69;84.36;98521.96;104947;1259;96627;-62
2023/06/19 03:56:31;;;;;;;16.00;11.40;;;;;;;14.75;84.24;98519.55;105032;1259;96583;-62
2023/06/19 03:58:58;;;;;;;16.00;10.80;;;;;;;14.82;83.98;98522.34;104970;1260;97975;-62
2023/06/19 04:01:26;;;;;;;15.50;10.80;;;;;;;14.91;83.83;98517.82;104989;1260;96646;-62
2023/06/19 04:03:54;;;;;;;16.50;11.00;;;;;;;15.06;83.66;98521.33;104886;1267;96591;-62
2023/06/19 04:06:21;;;;;;;17.30;10.90;;;;;;;15.27;83.03;98528.90;104901;1260;96623;-62
2023/06/19 04:08:48;;;;;;;18.10;10.40;;;;;;;15.53;82.51;98529.80;104806;1259;97891;-62
2023/06/19 04:11:15;;;;;;;15.60;10.50;;;;;;;15.79;82.10;98524.75;104927;1258;96556;-63
2023/06/19 04:13:42;;;;;;;14.70;9.90;;;;;;;16.01;81.33;98521.81;104775;1258;96640;-66
2023/06/19 04:16:09;;;;;;;18.90;9.30;;;;;;;16.15;80.29;98523.63;104964;1259;96650;-62
2023/06/19 04:18:36;;;;;;;16.90;10.00;;;;;;;16.29;79.95;98525.61;104971;1268;96573;-62
2023/06/19 04:21:04;;;;;;;13.50;8.90;;;;;;;16.47;80.04;98529.08;104970;1270;96598;-62
2023/06/19 04:23:32;;;;;;;11.60;8.70;;;;;;;16.67;79.03;98530.73;104874;1268;97859;-62
2023/06/19 04:25:59;;;;;;;12.80;8.50;;;;;;;16.86;78.58;98533.39;104940;1260;96555;-62
2023/06/19 04:28:26;;;;;;;15.10;9.00;;;;;;;17.01;77.41;98533.52;104996;1269;96577;-65
2023/06/19 04:30:59;;;;;;;15.60;9.10;;;;;;;17.14;77.02;98535.81;105123;1260;96533;-61
2023/06/19 04:33:29;;;;;;;13.40;8.20;;;;;;;17.29;76.84;98530.67;104983;1263;96632;-62
2023/06/19 04:35:57;;;;;;;12.80;8.50;;;;;;;17.47;76.13;98528.12;105150;1267;109929;-63
2023/06/19 04:38:24;;;;;;;14.50;7.90;;;;;;;17.58;75.56;98530.41;105150;1258;99515;-63
2023/06/19 04:40:52;;;;;;;15.30;8.20;;;;;;;17.68;74.52;98533.53;105257;1268;107902;-62
2023/06/19 04:43:19;;;;;;;11.40;8.10;;;;;;;17.78;74.73;98535.31;105182;1260;97733;-62
2023/06/19 04:45:46;;;;;;;12.60;7.80;;;;;;;17.94;74.01;98532.69;105230;1257;96620;-62
2023/06/19 04:48:14;;;;;;;12.00;7.50;;;;;;;18.07;73.34;98530.48;105182;1258;111038;-62
2023/06/19 04:50:42;;;;;;;14.80;8.00;;;;;;;18.15;72.47;98531.52;105067;1270;98927;-62
2023/06/19 04:53:09;;;;;;;11.00;7.50;;;;;;;18.19;72.22;98529.45;104825;1260;107619;-63
2023/06/19 04:55:37;;;;;;;15.20;8.40;;;;;;;18.27;72.43;98528.23;104932;1264;96519;-63
2023/06/19 04:58:05;;;;;;;12.20;8.40;;;;;;;18.40;71.74;98528.63;105034;1260;97245;-61
2023/06/19 05:00:33;;;;;;;11.90;8.40;;;;;;;18.48;71.42;98528.67;104866;1264;110007;-61
2023/06/19 05:03:00;;;;;;;11.20;8.00;;;;;;;18.57;71.45;98533.18;105019;1258;96556;-63
2023/06/19 05:05:29;;;;;;;13.40;8.80;;;;;;;18.70;71.28;98533.23;104893;1265;107741;-63
2023/06/19 05:07:57;;;;;;;11.30;8.60;;;;;;;18.83;70.67;98534.38;104892;1271;97850;-62
2023/06/19 05:10:24;;;;;;;12.20;9.10;;;;;;;18.90;70.34;98535.52;105032;1259;96528;-62
2023/06/19 05:12:52;;;;;;;12.60;8.60;;;;;;;18.96;69.75;98529.27;105031;1258;110881;-62
2023/06/19 05:15:19;;;;;;;12.60;9.00;;;;;;;19.05;70.36;98534.64;104922;1268;96700;-62
2023/06/19 05:17:46;;;;;;;16.70;9.50;;;;;;;19.21;70.19;98536.64;104841;1259;96602;-62
2023/06/19 05:20:15;;;;;;;18.60;11.40;;;;;;;19.42;70.07;98536.05;104997;1268;97906;-63
2023/06/19 05:22:42;;;;;;;27.00;15.00;;;;;;;19.58;68.69;98537.04;104837;1273;98245;-61
2023/06/19 05:25:10;;;;;;;25.70;15.90;;;;;;;19.60;68.73;98538.41;105492;1268;96552;-62
2023/06/19 05:27:37;;;;;;;21.30;13.50;;;;;;;19.66;68.78;98543.02;105080;1260;97733;-62
2023/06/19 05:30:05;;;;;;;19.10;12.20;;;;;;;19.79;68.86;98539.98;105005;1268;97885;-62
2023/06/19 05:32:32;;;;;;;21.20;12.00;;;;;;;19.94;69.04;98548.03;104817;1270;96818;-62
2023/06/19 05:34:59;;;;;;;15.70;10.50;;;;;;;20.12;67.83;98546.97;104925;1268;97449;-67
2023/06/19 05:37:27;;;;;;;14.40;8.80;;;;;;;20.16;67.94;98547.32;104892;1260;96504;-63
2023/06/19 05:39:54;;;;;;;13.40;8.50;;;;;;;20.31;68.15;98542.86;105035;1258;96654;-62
2023/06/19 05:42:21;;;;;;;10.90;7.70;;;;;;;20.51;67.33;98542.48;105007;1260;97469;-62
2023/06/19 05:44:49;;;;;;;13.40;8.10;;;;;;;20.67;66.90;98542.84;105008;1268;96556;-62
2023/06/19 05:47:17;;;;;;;11.30;8.10;;;;;;;20.85;66.27;98544.36;105037;1267;96565;-62
2023/06/19 05:49:45;;;;;;;10.30;7.00;;;;;;;20.90;65.79;98542.17;104807;1274;110402;-62
2023/06/19 05:52:12;;;;;;;10.70;7.20;;;;;;;21.02;65.38;98544.25;105049;1259;96597;-63
2023/06/19 05:54:40;;;;;;;8.40;7.00;;;;;;;21.19;64.92;98546.91;104980;1269;107798;-62
2023/06/19 05:57:07;;;;;;;9.10;6.30;;;;;;;21.29;63.59;98550.88;104936;1268;96548;-63
2023/06/19 05:59:34;;;;;;;7.80;6.10;;;;;;;21.31;63.09;98552.80;105009;1258;97863;-63
2023/06/19 06:02:03;;;;;;;9.40;6.20;;;;;;;21.39;63.57;98553.78;104997;1266;96574;-62
2023/06/19 06:04:30;;;;;;;8.20;6.00;;;;;;;21.57;61.98;98553.01;104929;1276;99155;-63
2023/06/19 06:06:57;;;;;;;7.80;5.90;;;;;;;21.62;61.86;98548.80;105010;1268;108745;-63
2023/06/19 06:09:24;;;;;;;6.70;5.70;;;;;;;21.73;60.81;98552.11;104922;1269;96594;-63
2023/06/19 06:11:52;;;;;;;6.70;5.30;;;;;;;21.77;60.17;98558.84;104958;1260;96557;-63
2023/06/19 06:14:19;;;;;;;8.10;6.00;;;;;;;21.92;61.57;98558.03;104977;1260;97314;-63
2023/06/19 06:16:46;;;;;;;8.90;6.00;;;;;;;22.16;61.01;98560.01;105060;1267;97852;-62
2023/06/19 06:19:13;;;;;;;9.70;5.90;;;;;;;22.27;61.08;98568.32;105060;1258;96648;-62
2023/06/19 06:21:40;;;;;;;8.80;6.10;;;;;;;22.39;60.35;98567.05;104977;1268;97856;-62
2023/06/19 06:24:08;;;;;;;8.70;6.70;;;;;;;22.42;59.75;98573.19;105051;1258;96625;-62
2023/06/19 06:26:36;;;;;;;9.80;6.30;;;;;;;22.43;60.12;98571.05;104965;1262;96542;-62
2023/06/19 06:29:03;;;;;;;13.30;6.60;;;;;;;22.52;59.93;98569.39;104993;1270;96555;-63
2023/06/19 06:31:31;;;;;;;8.60;6.60;;;;;;;22.60;59.27;98570.30;104957;1275;96546;-63
2023/06/19 06:33:59;;;;;;;10.00;6.80;;;;;;;22.69;59.08;98571.59;104968;1255;97920;-62
2023/06/19 06:36:27;;;;;;;12.00;6.00;;;;;;;22.76;58.74;98573.17;105033;1260;97341;-63
2023/06/19 06:39:02;;;;;;;13.40;8.20;;;;;;;22.95;58.21;98572.22;104980;1260;111139;-63
2023/06/19 06:41:30;;;;;;;12.60;6.80;;;;;;;23.19;57.07;98574.66;104982;1258;96653;-63
2023/06/19 06:43:57;;;;;;;12.50;6.40;;;;;;;23.36;56.99;98574.96;105025;1269;96545;-63
2023/06/19 06:46:24;;;;;;;11.40;6.30;;;;;;;23.62;56.99;98584.09;105019;1269;96629;-63
2023/06/19 06:48:52;;;;;;;16.80;7.20;;;;;;;23.89;56.96;98583.75;104981;1254;96560;-63
2023/06/19 06:51:19;;;;;;;8.90;5.80;;;;;;;24.14;55.80;98585.73;105000;1265;96688;-63
2023/06/19 06:53:46;;;;;;;9.40;5.80;;;;;;;24.29;54.85;98589.33;104964;1259;96581;-63
2023/06/19 06:56:14;;;;;;;11.30;5.70;;;;;;;24.35;52.32;98588.81;104789;1270;96580;-63
2023/06/19 06:58:41;;;;;;;11.70;5.90;;;;;;;24.31;50.78;98591.14;105024;1269;96653;-65
2023/06/19 07:01:09;;;;;;;9.50;5.70;;;;;;;24.36;53.47;98592.48;104809;1255;97026;-64
2023/06/19 07:03:36;;;;;;;7.10;5.00;;;;;;;24.54;51.85;98588.91;104961;1260;96608;-63
2023/06/19 07:06:03;;;;;;;10.20;5.20;;;;;;;24.65;50.89;98590.92;105000;1261;97461;-63
2023/06/19 07:08:31;;;;;;;8.20;5.40;;;;;;;24.76;51.11;98594.45;104978;1268;97850;-63
2023/06/19 07:10:58;;;;;;;8.50;5.50;;;;;;;24.93;50.68;98591.45;104939;1265;96616;-62
2023/06/19 07:13:26;;;;;;;8.20;4.90;;;;;;;25.10;48.60;98592.35;104994;1254;96533;-61
2023/06/19 07:15:53;;;;;;;8.30;4.50;;;;;;;25.27;49.58;98591.06;105370;1254;96639;-61
2023/06/19 07:18:20;;;;;;;6.90;4.50;;;;;;;25.58;48.74;98588.16;104945;1270;96619;-61
2023/06/19 07:20:47;;;;;;;6.70;5.00;;;;;;;25.82;48.23;98587.67;104959;1270;96587;-61
2023/06/19 07:23:15;;;;;;;8.60;5.20;;;;;;;26.13;47.62;98589.61;105059;1260;96606;-61
2023/06/19 07:25:42;;;;;;;6.20;4.30;;;;;;;26.40;47.36;98587.64;104985;1254;96562;-61
2023/06/19 07:28:09;;;;;;;9.00;6.30;;;;;;;26.76;46.99;98586.05;104855;1261;97089;-61
2023/06/19 07:30:36;;;;;;;7.50;5.50;;;;;;;27.07;45.84;98590.80;104950;1269;96549;-61
2023/06/19 07:33:04;;;;;;;5.70;4.50;;;;;;;27.38;45.27;98590.89;105077;1268;96562;-61
2023/06/19 07:35:31;;;;;;;6.10;4.40;;;;;;;27.41;43.25;98591.23;105033;1260;97150;-61
2023/06/19 07:37:58;;;;;;;7.70;4.70;;;;;;;27.66;43.60;98597.59;105043;1254;96547;-61
2023/06/19 07:40:25;;;;;;;6.60;4.50;;;;;;;27.86;41.37;98595.67;104962;1269;97125;-61
2023/06/19 07:42:53;;;;;;;6.70;4.00;;;;;;;27.91;40.63;98597.60;105041;1260;96596;-61
2023/06/19 07:45:22;;;;;;;7.40;4.50;;;;;;;28.08;42.60;98598.52;105024;1260;97876;-61
2023/06/19 07:47:57;;;;;;;7.30;4.60;;;;;;;28.46;43.26;98602.38;105012;1260;96551;-61
2023/06/19 07:50:24;;;;;;;6.50;4.20;;;;;;;28.79;41.12;98602.31;104972;1264;96848;-61
2023/06/19 07:52:53;;;;;;;8.60;4.30;;;;;;;28.79;40.37;98602.40;104816;1259;110761;-60
2023/06/19 07:55:21;;;;;;;6.30;4.20;;;;;;;28.88;41.39;98597.60;105007;1260;96671;-61
2023/06/19 07:57:48;;;;;;;7.10;4.30;;;;;;;29.32;40.66;98596.99;104937;1261;108011;-61
2023/06/19 08:00:16;;;;;;;6.20;4.00;;;;;;;29.81;40.55;98595.03;104889;1263;97064;-60
2023/06/19 08:02:43;;;;;;;7.10;3.70;;;;;;;30.25;40.29;98592.45;104756;1270;96535;-63
2023/06/19 08:05:11;;;;;;;7.00;4.20;;;;;;;30.55;39.31;98589.27;104884;1260;110853;-61
2023/06/19 08:07:39;;;;;;;7.10;3.80;;;;;;;30.75;39.67;98590.34;104919;1269;98502;-61
2023/06/19 08:10:06;;;;;;;6.00;4.00;;;;;;;31.18;38.22;98594.02;104810;1259;96561;-61
2023/06/19 08:12:44;;;;;;;6.10;3.50;;;;;;;31.46;37.36;98591.38;104754;1259;96565;-63
2023/06/19 08:15:13;;;;;;;5.00;3.60;;;;;;;31.70;36.48;98591.48;104857;1272;96549;-63
2023/06/19 08:17:41;;;;;;;4.20;3.60;;;;;;;31.96;36.16;98588.74;104851;1261;110624;-61
2023/06/19 08:20:09;;;;;;;5.90;3.60;;;;;;;32.11;35.39;98591.12;104785;1270;98749;-60
2023/06/19 08:22:37;;;;;;;5.00;3.10;;;;;;;32.16;34.88;98592.21;105051;1265;107753;-62
2023/06/19 08:25:04;;;;;;;3.70;3.10;;;;;;;32.17;33.73;98594.53;104980;1260;97882;-64
2023/06/19 08:27:31;;;;;;;4.80;3.20;;;;;;;32.17;33.95;98590.90;105005;1261;97242;-62
2023/06/19 08:29:58;;;;;;;4.00;3.60;;;;;;;32.27;34.28;98591.39;104974;1259;96671;-62
2023/06/19 08:32:26;;;;;;;6.00;3.50;;;;;;;32.27;33.22;98592.94;105007;1254;96604;-62
2023/06/19 08:34:54;;;;;;;3.60;3.30;;;;;;;31.99;33.04;98590.11;105007;1259;108778;-62
2023/06/19 08:37:21;;;;;;;4.20;3.30;;;;;;;31.74;34.19;98595.63;104971;1261;96664;-63
2023/06/19 08:39:48;;;;;;;3.50;3.20;;;;;;;31.55;33.54;98592.26;105047;1255;96732;-62
2023/06/19 08:42:16;;;;;;;4.30;3.40;;;;;;;31.24;34.11;98586.52;105019;1270;97868;-62
2023/06/19 08:44:48;;;;;;;5.30;3.40;;;;;;;31.34;34.59;98582.02;105038;1262;97847;-63
2023/06/19 08:47:33;;;;;;;4.40;3.40;;;;;;;31.52;35.92;98584.69;104895;1261;108165;-61
2023/06/19 08:50:01;;;;;;;4.80;3.50;;;;;;;31.62;35.84;98585.80;105011;1259;96683;-61
2023/06/19 08:52:28;;;;;;;4.00;3.30;;;;;;;31.60;34.08;98584.55;105018;1269;97889;-60
2023/06/19 08:54:55;;;;;;;5.10;3.80;;;;;;;31.57;34.60;98583.63;104978;1254;96643;-61
2023/06/19 08:57:34;;;;;;;4.50;3.40;;;;;;;31.77;34.15;98580.86;104973;1269;96547;-61
2023/06/19 09:00:01;;;;;;;3.90;3.30;;;;;;;31.90;34.27;98579.48;105006;1260;107596;-61
2023/06/19 09:02:42;;;;;;;7.00;3.40;;;;;;;32.08;34.92;98577.07;104935;1259;96641;-61
2023/06/19 09:05:11;;;;;;;8.10;3.70;;;;;;;32.42;33.93;98576.09;105007;1261;97920;-60
2023/06/19 09:07:38;;;;;;;4.90;3.50;;;;;;;32.62;33.35;98571.06;104868;1266;110017;-60
2023/06/19 09:10:14;;;;;;;6.70;3.90;;;;;;;32.53;32.46;98574.69;105031;1260;97755;-61
2023/06/19 09:12:44;;;;;;;3.90;3.50;;;;;;;32.05;31.99;98572.86;105009;1261;108512;-60
2023/06/19 09:15:12;;;;;;;4.90;3.30;;;;;;;31.65;32.99;98569.64;105028;1268;96947;-60
2023/06/19 09:17:40;;;;;;;6.00;3.80;;;;;;;31.45;33.45;98573.52;105072;1266;96657;-61
2023/06/19 09:20:08;;;;;;;6.00;3.60;;;;;;;31.12;34.08;98572.95;105007;1254;110576;-61
2023/06/19 09:22:35;;;;;;;4.70;3.90;;;;;;;30.84;33.63;98573.15;105042;1260;99103;-61
2023/06/19 09:25:03;;;;;;;4.40;3.30;;;;;;;30.83;33.66;98574.02;105061;1254;96553;-61
2023/06/19 09:27:33;;;;;;;4.90;3.80;;;;;;;31.04;33.94;98572.18;105017;1268;97929;-60
2023/06/19 09:30:00;;;;;;;4.50;3.20;;;;;;;31.38;33.57;98566.73;105018;1261;96556;-61
2023/06/19 09:32:28;;;;;;;4.00;3.60;;;;;;;31.88;33.94;98567.06;104978;1258;110873;-60
2023/06/19 09:35:00;;;;;;;4.90;3.30;;;;;;;32.30;33.71;98566.73;105004;1270;99391;-61
2023/06/19 09:37:30;;;;;;;6.50;3.60;;;;;;;32.67;33.65;98568.99;104872;1265;108188;-61
2023/06/19 09:39:58;;;;;;;3.50;3.20;;;;;;;32.93;31.26;98570.37;105021;1270;96655;-61
2023/06/19 09:42:33;;;;;;;3.90;3.10;;;;;;;32.97;30.15;98574.52;104747;1265;97745;-61
2023/06/19 09:45:05;;;;;;;3.70;3.00;;;;;;;33.09;30.57;98570.80;104907;1269;111516;-66
2023/06/19 09:47:38;;;;;;;3.50;3.20;;;;;;;33.06;30.90;98570.75;104789;1259;99624;-67
2023/06/19 09:50:07;;;;;;;3.50;3.10;;;;;;;33.02;31.79;98569.56;105011;1260;107822;-63
2023/06/19 09:52:34;;;;;;;3.90;2.80;;;;;;;33.07;31.83;98568.98;104894;1254;97875;-61
2023/06/19 09:55:06;;;;;;;5.90;3.20;;;;;;;33.31;30.90;98570.08;105034;1259;96563;-60
2023/06/19 09:57:34;;;;;;;3.00;2.80;;;;;;;33.80;30.17;98570.20;105007;1270;110972;-60
2023/06/19 10:00:12;;;;;;;2.90;2.70;;;;;;;34.11;29.09;98568.46;105051;1258;98931;-61
2023/06/19 10:02:44;;;;;;;3.40;3.10;;;;;;;33.92;28.72;98567.35;105013;1258;108708;-61
2023/06/19 10:05:13;;;;;;;3.40;2.80;;;;;;;34.11;28.73;98568.52;105014;1271;96564;-61
2023/06/19 10:07:44;;;;;;;3.50;2.90;;;;;;;34.35;28.54;98566.92;104943;1259;96509;-61
2023/06/19 10:10:22;;;;;;;3.90;3.00;;;;;;;34.53;28.22;98567.70;104890;1260;110845;-62
2023/06/19 10:12:51;;;;;;;4.10;2.90;;;;;;;34.79;28.26;98564.88;104871;1264;97853;-62
2023/06/19 10:15:21;;;;;;;3.00;2.70;;;;;;;34.64;27.55;98561.58;104937;1273;107496;-62
2023/06/19 10:18:16;;;;;;;2.90;2.70;;;;;;;34.66;26.84;98563.50;105007;1259;96552;-62
2023/06/19 10:20:46;;;;;;;3.20;2.90;;;;;;;34.64;26.94;98564.38;105070;1257;96562;-62
2023/06/19 10:23:21;;;;;;;5.80;3.00;;;;;;;34.56;26.25;98560.31;105026;1254;110812;-62
2023/06/19 10:25:55;;;;;;;3.10;2.80;;;;;;;34.53;26.39;98565.73;105038;1259;99209;-62
2023/06/19 10:28:23;;;;;;;3.20;2.90;;;;;;;34.48;26.88;98567.84;105049;1254;108529;-62
2023/06/19 10:30:58;;;;;;;2.90;2.70;;;;;;;34.56;26.62;98566.82;105049;1260;97349;-61
2023/06/19 10:33:27;;;;;;;2.80;2.60;;;;;;;34.72;26.97;98560.02;104928;1254;96757;-62
2023/06/19 10:35:55;;;;;;;4.80;2.90;;;;;;;34.88;25.68;98555.33;105055;1257;110690;-62
2023/06/19 10:38:22;;;;;;;3.70;3.10;;;;;;;34.66;26.52;98554.13;105044;1270;99605;-62
2023/06/19 10:40:50;;;;;;;5.30;3.10;;;;;;;35.16;27.04;98551.36;105022;1254;109928;-61
2023/06/19 10:43:27;;;;;;;3.20;3.00;;;;;;;35.45;26.27;98549.27;105022;1258;96572;-62
2023/06/19 10:45:54;;;;;;;4.20;3.00;;;;;;;35.58;26.78;98551.52;105002;1268;96565;-61
2023/06/19 10:48:24;;;;;;;3.40;3.10;;;;;;;35.67;25.99;98554.60;105014;1259;97139;-62
2023/06/19 10:50:51;;;;;;;3.30;3.00;;;;;;;35.97;25.15;98554.61;105040;1263;99435;-62
2023/06/19 10:53:31;;;;;;;3.60;3.30;;;;;;;35.94;25.31;98561.30;105018;1259;108735;-61
2023/06/19 10:55:59;;;;;;;;;;;;;;;36.12;25.20;98559.56;105013;1259;96534;-62
2023/06/19 10:58:28;;;;;;;3.50;3.20;;;;;;;36.24;24.79;98564.66;105045;1260;96575;-62
2023/06/19 11:00:56;;;;;;;4.20;3.30;;;;;;;36.43;24.31;98558.08;105013;1259;110860;-62
2023/06/19 11:03:24;;;;;;;3.40;2.90;;;;;;;36.44;24.68;98560.43;105000;1259;99456;-62
2023/06/19 11:05:51;;;;;;;2.90;2.70;;;;;;;36.48;23.77;98561.11;104831;1268;107353;-62
2023/06/19 11:08:20;;;;;;;3.70;2.80;;;;;;;36.80;22.80;98552.23;104882;1259;96556;-63
2023/06/19 11:10:48;;;;;;;4.30;3.10;;;;;;;37.02;22.79;98553.34;104893;1259;97751;-62
2023/06/19 11:13:20;;;;;;;3.40;3.10;;;;;;;36.52;22.84;98548.73;105023;1260;111007;-62
2023/06/19 11:15:49;;;;;;;3.30;3.00;;;;;;;36.38;23.73;98551.56;105276;1259;98777;-62
2023/06/19 11:18:17;;;;;;;;;;;;;;;36.75;24.36;98553.92;104998;1271;108674;-62
2023/06/19 11:20:50;;;;;;;3.20;2.90;;;;;;;37.01;23.48;98557.73;105017;1261;96629;-63
2023/06/19 11:23:29;;;;;;;4.10;3.30;;;;;;;36.24;22.99;98555.89;105027;1259;97857;-62